sensor_id;sensor_type;location;lat;lon;timestamp;pressure;altitude;pressure_sealevel;temperature
66372;BMP180;53168;51.146;17.120;2023-06-22T00:02:07;100436.40;;;22.70
66372;BMP180;53168;51.146;17.120;2023-06-22T00:04:41;100431.40;;;22.70
66372;BMP180;53168;51.146;17.120;2023-06-22T00:07:14;100431.40;;;22.60
66372;BMP180;53168;51.146;17.120;2023-06-22T00:09:48;100435.40;;;22.60
66372;BMP180;53168;51.146;17.120;2023-06-22T00:12:22;100434.40;;;22.60
66372;BMP180;53168;51.146;17.120;2023-06-22T00:14:55;100435.60;;;22.60
66372;BMP180;53168;51.146;17.120;2023-06-22T00:17:29;100438.80;;;22.60
66372;BMP180;53168;51.146;17.120;2023-06-22T00:20:03;100444.40;;;22.50
66372;BMP180;53168;51.146;17.120;2023-06-22T00:22:40;100441.20;;;22.50
66372;BMP180;53168;51.146;17.120;2023-06-22T00:25:15;100445.20;;;22.50
66372;BMP180;53168;51.146;17.120;2023-06-22T00:27:49;100441.40;;;22.40
66372;BMP180;53168;51.146;17.120;2023-06-22T00:30:22;100448.40;;;22.40
66372;BMP180;53168;51.146;17.120;2023-06-22T00:32:56;100458.40;;;22.30
66372;BMP180;53168;51.146;17.120;2023-06-22T00:35:31;100467.00;;;22.30
66372;BMP180;53168;51.146;17.120;2023-06-22T00:38:05;100469.80;;;22.30
66372;BMP180;53168;51.146;17.120;2023-06-22T00:40:39;100475.00;;;22.20
66372;BMP180;53168;51.146;17.120;2023-06-22T00:43:12;100467.40;;;22.20
66372;BMP180;53168;51.146;17.120;2023-06-22T00:45:45;100474.40;;;22.10
66372;BMP180;53168;51.146;17.120;2023-06-22T00:48:19;100474.00;;;22.10
66372;BMP180;53168;51.146;17.120;2023-06-22T00:50:53;100479.20;;;22.00
66372;BMP180;53168;51.146;17.120;2023-06-22T00:53:28;100480.40;;;22.00
66372;BMP180;53168;51.146;17.120;2023-06-22T00:56:02;100483.00;;;21.90
66372;BMP180;53168;51.146;17.120;2023-06-22T00:58:38;100484.60;;;21.90
66372;BMP180;53168;51.146;17.120;2023-06-22T01:01:14;100488.60;;;21.90
66372;BMP180;53168;51.146;17.120;2023-06-22T01:03:47;100490.40;;;21.90
66372;BMP180;53168;51.146;17.120;2023-06-22T01:06:35;100489.00;;;21.80
66372;BMP180;53168;51.146;17.120;2023-06-22T01:09:22;100487.00;;;21.80
66372;BMP180;53168;51.146;17.120;2023-06-22T01:12:07;100484.40;;;21.80
66372;BMP180;53168;51.146;17.120;2023-06-22T01:14:49;100480.40;;;21.70
66372;BMP180;53168;51.146;17.120;2023-06-22T01:17:27;100484.20;;;21.70
66372;BMP180;53168;51.146;17.120;2023-06-22T01:20:06;100487.80;;;21.68
66372;BMP180;53168;51.146;17.120;2023-06-22T01:23:09;100485.60;;;21.60
66372;BMP180;53168;51.146;17.120;2023-06-22T01:26:02;100491.40;;;21.52
66372;BMP180;53168;51.146;17.120;2023-06-22T01:28:48;100492.60;;;21.50
66372;BMP180;53168;51.146;17.120;2023-06-22T01:31:28;100493.60;;;21.44
66372;BMP180;53168;51.146;17.120;2023-06-22T01:34:06;100495.60;;;21.40
66372;BMP180;53168;51.146;17.120;2023-06-22T01:36:43;100496.00;;;21.30
66372;BMP180;53168;51.146;17.120;2023-06-22T01:39:19;100495.60;;;21.30
66372;BMP180;53168;51.146;17.120;2023-06-22T01:41:57;100493.80;;;21.22
66372;BMP180;53168;51.146;17.120;2023-06-22T01:44:32;100492.00;;;21.20
66372;BMP180;53168;51.146;17.120;2023-06-22T01:47:08;100492.00;;;21.10
66372;BMP180;53168;51.146;17.120;2023-06-22T01:49:43;100502.40;;;21.10
66372;BMP180;53168;51.146;17.120;2023-06-22T01:52:17;100499.20;;;21.02
66372;BMP180;53168;51.146;17.120;2023-06-22T01:54:50;100498.40;;;21.00
66372;BMP180;53168;51.146;17.120;2023-06-22T01:57:24;100494.60;;;20.98
66372;BMP180;53168;51.146;17.120;2023-06-22T02:00:05;100499.80;;;20.90
66372;BMP180;53168;51.146;17.120;2023-06-22T02:02:57;100496.20;;;20.84
66372;BMP180;53168;51.146;17.120;2023-06-22T02:05:42;100497.80;;;20.80
66372;BMP180;53168;51.146;17.120;2023-06-22T02:08:26;100504.40;;;20.74
66372;BMP180;53168;51.146;17.120;2023-06-22T02:11:07;100500.20;;;20.70
66372;BMP180;53168;51.146;17.120;2023-06-22T02:13:42;100499.80;;;20.70
66372;BMP180;53168;51.146;17.120;2023-06-22T02:16:18;100501.00;;;20.70
66372;BMP180;53168;51.146;17.120;2023-06-22T02:18:54;100502.60;;;20.60
66372;BMP180;53168;51.146;17.120;2023-06-22T02:21:29;100498.40;;;20.62
66372;BMP180;53168;51.146;17.120;2023-06-22T02:24:02;100498.00;;;20.70
66372;BMP180;53168;51.146;17.120;2023-06-22T02:26:37;100497.40;;;20.70
66372;BMP180;53168;51.146;17.120;2023-06-22T02:29:12;100497.80;;;20.70
66372;BMP180;53168;51.146;17.120;2023-06-22T02:31:47;100500.20;;;20.60
66372;BMP180;53168;51.146;17.120;2023-06-22T02:34:22;100499.60;;;20.60
66372;BMP180;53168;51.146;17.120;2023-06-22T02:36:56;100503.20;;;20.50
66372;BMP180;53168;51.146;17.120;2023-06-22T02:39:40;100502.60;;;20.50
66372;BMP180;53168;51.146;17.120;2023-06-22T02:42:14;100499.40;;;20.50
66372;BMP180;53168;51.146;17.120;2023-06-22T02:44:53;100496.20;;;20.40
66372;BMP180;53168;51.146;17.120;2023-06-22T02:47:27;100499.20;;;20.40
66372;BMP180;53168;51.146;17.120;2023-06-22T02:50:01;100502.80;;;20.40
66372;BMP180;53168;51.146;17.120;2023-06-22T02:52:37;100500.60;;;20.40
66372;BMP180;53168;51.146;17.120;2023-06-22T02:55:12;100496.20;;;20.30
66372;BMP180;53168;51.146;17.120;2023-06-22T02:57:47;100494.60;;;20.30
66372;BMP180;53168;51.146;17.120;2023-06-22T03:00:25;100492.00;;;20.30
66372;BMP180;53168;51.146;17.120;2023-06-22T03:03:07;100490.40;;;20.30
66372;BMP180;53168;51.146;17.120;2023-06-22T03:05:41;100493.40;;;20.30
66372;BMP180;53168;51.146;17.120;2023-06-22T03:08:15;100492.80;;;20.30
66372;BMP180;53168;51.146;17.120;2023-06-22T03:10:48;100489.60;;;20.24
66372;BMP180;53168;51.146;17.120;2023-06-22T03:13:22;100493.20;;;20.22
66372;BMP180;53168;51.146;17.120;2023-06-22T03:15:57;100494.40;;;20.22
66372;BMP180;53168;51.146;17.120;2023-06-22T03:18:31;100497.60;;;20.20
66372;BMP180;53168;51.146;17.120;2023-06-22T03:21:05;100504.00;;;20.24
66372;BMP180;53168;51.146;17.120;2023-06-22T03:23:39;100509.80;;;20.22
66372;BMP180;53168;51.146;17.120;2023-06-22T03:26:15;100514.40;;;20.24
66372;BMP180;53168;51.146;17.120;2023-06-22T03:28:50;100523.60;;;20.30
66372;BMP180;53168;51.146;17.120;2023-06-22T03:31:24;100531.80;;;20.30
66372;BMP180;53168;51.146;17.120;2023-06-22T03:33:58;100532.80;;;20.30
66372;BMP180;53168;51.146;17.120;2023-06-22T03:36:32;100530.00;;;20.22
66372;BMP180;53168;51.146;17.120;2023-06-22T03:39:06;100530.00;;;20.20
66372;BMP180;53168;51.146;17.120;2023-06-22T03:41:40;100535.60;;;20.20
66372;BMP180;53168;51.146;17.120;2023-06-22T03:44:14;100540.20;;;20.20
66372;BMP180;53168;51.146;17.120;2023-06-22T03:46:48;100542.00;;;20.22
66372;BMP180;53168;51.146;17.120;2023-06-22T03:49:24;100543.40;;;20.30
66372;BMP180;53168;51.146;17.120;2023-06-22T03:51:59;100544.80;;;20.30
66372;BMP180;53168;51.146;17.120;2023-06-22T03:54:34;100545.40;;;20.36
66372;BMP180;53168;51.146;17.120;2023-06-22T03:57:08;100542.80;;;20.40
66372;BMP180;53168;51.146;17.120;2023-06-22T03:59:43;100546.60;;;20.40
66372;BMP180;53168;51.146;17.120;2023-06-22T04:02:17;100555.00;;;20.50
66372;BMP180;53168;51.146;17.120;2023-06-22T04:04:50;100560.40;;;20.50
66372;BMP180;53168;51.146;17.120;2023-06-22T04:07:25;100559.20;;;20.50
66372;BMP180;53168;51.146;17.120;2023-06-22T04:09:59;100559.40;;;20.56
66372;BMP180;53168;51.146;17.120;2023-06-22T04:12:32;100562.40;;;20.60
66372;BMP180;53168;51.146;17.120;2023-06-22T04:15:09;100569.40;;;20.64
66372;BMP180;53168;51.146;17.120;2023-06-22T04:17:44;100561.20;;;20.70
66372;BMP180;53168;51.146;17.120;2023-06-22T04:20:17;100567.20;;;20.80
66372;BMP180;53168;51.146;17.120;2023-06-22T04:22:51;100573.60;;;20.84
66372;BMP180;53168;51.146;17.120;2023-06-22T04:25:25;100569.00;;;20.90
66372;BMP180;53168;51.146;17.120;2023-06-22T04:27:58;100576.20;;;21.00
66372;BMP180;53168;51.146;17.120;2023-06-22T04:30:36;100582.20;;;21.00
66372;BMP180;53168;51.146;17.120;2023-06-22T04:33:11;100574.40;;;21.10
66372;BMP180;53168;51.146;17.120;2023-06-22T04:35:47;100573.60;;;21.20
66372;BMP180;53168;51.146;17.120;2023-06-22T04:38:21;100576.40;;;21.28
66372;BMP180;53168;51.146;17.120;2023-06-22T04:40:58;100576.00;;;21.30
66372;BMP180;53168;51.146;17.120;2023-06-22T04:43:35;100571.40;;;21.40
66372;BMP180;53168;51.146;17.120;2023-06-22T04:46:08;100577.60;;;21.50
66372;BMP180;53168;51.146;17.120;2023-06-22T04:48:42;100581.80;;;21.64
66372;BMP180;53168;51.146;17.120;2023-06-22T04:51:16;100587.80;;;21.80
66372;BMP180;53168;51.146;17.120;2023-06-22T04:53:54;100582.80;;;21.90
66372;BMP180;53168;51.146;17.120;2023-06-22T04:56:33;100583.60;;;22.00
66372;BMP180;53168;51.146;17.120;2023-06-22T04:59:07;100582.80;;;22.02
66372;BMP180;53168;51.146;17.120;2023-06-22T05:01:40;100583.40;;;22.10
66372;BMP180;53168;51.146;17.120;2023-06-22T05:04:14;100592.80;;;22.20
66372;BMP180;53168;51.146;17.120;2023-06-22T05:06:49;100597.60;;;22.30
66372;BMP180;53168;51.146;17.120;2023-06-22T05:09:23;100596.00;;;22.40
66372;BMP180;53168;51.146;17.120;2023-06-22T05:11:58;100590.80;;;22.50
66372;BMP180;53168;51.146;17.120;2023-06-22T05:14:36;100593.20;;;22.60
66372;BMP180;53168;51.146;17.120;2023-06-22T05:17:10;100591.00;;;22.80
66372;BMP180;53168;51.146;17.120;2023-06-22T05:19:48;100582.00;;;22.90
66372;BMP180;53168;51.146;17.120;2023-06-22T05:22:22;100585.60;;;23.10
66372;BMP180;53168;51.146;17.120;2023-06-22T05:25:07;100591.60;;;23.20
66372;BMP180;53168;51.146;17.120;2023-06-22T05:27:42;100587.20;;;23.30
66372;BMP180;53168;51.146;17.120;2023-06-22T05:30:17;100590.60;;;23.40
66372;BMP180;53168;51.146;17.120;2023-06-22T05:32:56;100585.00;;;23.50
66372;BMP180;53168;51.146;17.120;2023-06-22T05:35:41;100589.00;;;23.60
66372;BMP180;53168;51.146;17.120;2023-06-22T05:38:15;100582.40;;;23.68
66372;BMP180;53168;51.146;17.120;2023-06-22T05:40:52;100583.40;;;23.70
66372;BMP180;53168;51.146;17.120;2023-06-22T05:43:32;100580.40;;;23.90
66372;BMP180;53168;51.146;17.120;2023-06-22T05:46:07;100579.00;;;24.00
66372;BMP180;53168;51.146;17.120;2023-06-22T05:48:41;100580.60;;;24.14
66372;BMP180;53168;51.146;17.120;2023-06-22T05:51:22;100578.40;;;24.30
66372;BMP180;53168;51.146;17.120;2023-06-22T05:53:56;100580.20;;;24.50
66372;BMP180;53168;51.146;17.120;2023-06-22T05:56:30;100582.60;;;24.50
66372;BMP180;53168;51.146;17.120;2023-06-22T05:59:04;100589.00;;;24.52
66372;BMP180;53168;51.146;17.120;2023-06-22T06:01:38;100590.40;;;24.50
66372;BMP180;53168;51.146;17.120;2023-06-22T06:04:13;100590.80;;;24.40
66372;BMP180;53168;51.146;17.120;2023-06-22T06:06:48;100586.20;;;24.40
66372;BMP180;53168;51.146;17.120;2023-06-22T06:09:22;100589.00;;;24.48
66372;BMP180;53168;51.146;17.120;2023-06-22T06:11:56;100588.20;;;24.50
66372;BMP180;53168;51.146;17.120;2023-06-22T06:14:32;100590.80;;;24.60
66372;BMP180;53168;51.146;17.120;2023-06-22T06:17:06;100591.40;;;24.74
66372;BMP180;53168;51.146;17.120;2023-06-22T06:19:42;100591.60;;;24.96
66372;BMP180;53168;51.146;17.120;2023-06-22T06:22:18;100595.80;;;25.10
66372;BMP180;53168;51.146;17.120;2023-06-22T06:24:53;100602.80;;;25.30
66372;BMP180;53168;51.146;17.120;2023-06-22T06:27:27;100605.40;;;25.34
66372;BMP180;53168;51.146;17.120;2023-06-22T06:30:08;100609.00;;;25.32
66372;BMP180;53168;51.146;17.120;2023-06-22T06:32:43;100606.80;;;25.42
66372;BMP180;53168;51.146;17.120;2023-06-22T06:35:18;100613.80;;;25.60
66372;BMP180;53168;51.146;17.120;2023-06-22T06:37:53;100614.60;;;25.72
66372;BMP180;53168;51.146;17.120;2023-06-22T06:40:26;100615.00;;;25.90
66372;BMP180;53168;51.146;17.120;2023-06-22T06:43:01;100617.40;;;25.90
66372;BMP180;53168;51.146;17.120;2023-06-22T06:45:35;100613.20;;;26.08
66372;BMP180;53168;51.146;17.120;2023-06-22T06:48:09;100619.20;;;26.18
66372;BMP180;53168;51.146;17.120;2023-06-22T06:50:45;100614.00;;;26.18
66372;BMP180;53168;51.146;17.120;2023-06-22T06:53:20;100614.60;;;26.20
66372;BMP180;53168;51.146;17.120;2023-06-22T06:56:02;100617.60;;;26.20
66372;BMP180;53168;51.146;17.120;2023-06-22T06:59:07;100612.40;;;26.40
66372;BMP180;53168;51.146;17.120;2023-06-22T07:09:07;100625.20;;;26.90
66372;BMP180;53168;51.146;17.120;2023-06-22T07:12:04;100621.80;;;27.00
66372;BMP180;53168;51.146;17.120;2023-06-22T07:51:53;100631.60;;;28.02
66372;BMP180;53168;51.146;17.120;2023-06-22T07:54:28;100635.40;;;28.12
66372;BMP180;53168;51.146;17.120;2023-06-22T07:57:03;100640.20;;;28.20
66372;BMP180;53168;51.146;17.120;2023-06-22T07:59:38;100641.20;;;28.10
66372;BMP180;53168;51.146;17.120;2023-06-22T08:05:27;100636.40;;;27.74
66372;BMP180;53168;51.146;17.120;2023-06-22T08:08:02;100633.80;;;27.70
66372;BMP180;53168;51.146;17.120;2023-06-22T08:10:38;100630.00;;;27.70
66372;BMP180;53168;51.146;17.120;2023-06-22T08:13:12;100624.20;;;27.80
66372;BMP180;53168;51.146;17.120;2023-06-22T08:15:46;100627.60;;;27.68
66372;BMP180;53168;51.146;17.120;2023-06-22T08:18:22;100630.40;;;27.56
66372;BMP180;53168;51.146;17.120;2023-06-22T08:20:56;100628.00;;;27.40
66372;BMP180;53168;51.146;17.120;2023-06-22T08:23:33;100625.00;;;27.30
66372;BMP180;53168;51.146;17.120;2023-06-22T08:26:07;100621.60;;;27.28
66372;BMP180;53168;51.146;17.120;2023-06-22T08:28:41;100630.20;;;27.20
66372;BMP180;53168;51.146;17.120;2023-06-22T08:31:15;100623.80;;;27.38
66372;BMP180;53168;51.146;17.120;2023-06-22T08:33:49;100617.80;;;27.60
66372;BMP180;53168;51.146;17.120;2023-06-22T08:36:24;100608.80;;;27.90
66372;BMP180;53168;51.146;17.120;2023-06-22T08:39:01;100600.40;;;28.24
66372;BMP180;53168;51.146;17.120;2023-06-22T08:41:35;100598.40;;;28.56
66372;BMP180;53168;51.146;17.120;2023-06-22T08:44:09;100594.40;;;28.70
66372;BMP180;53168;51.146;17.120;2023-06-22T08:46:43;100585.80;;;28.70
66372;BMP180;53168;51.146;17.120;2023-06-22T08:49:19;100590.40;;;28.92
66372;BMP180;53168;51.146;17.120;2023-06-22T08:51:55;100586.00;;;29.26
66372;BMP180;53168;51.146;17.120;2023-06-22T08:54:35;100577.40;;;29.60
66372;BMP180;53168;51.146;17.120;2023-06-22T08:57:09;100570.20;;;29.54
66372;BMP180;53168;51.146;17.120;2023-06-22T08:59:43;100576.80;;;29.60
66372;BMP180;53168;51.146;17.120;2023-06-22T09:02:17;100584.00;;;29.70
66372;BMP180;53168;51.146;17.120;2023-06-22T09:04:52;100582.40;;;29.64
66372;BMP180;53168;51.146;17.120;2023-06-22T09:07:28;100588.40;;;29.64
66372;BMP180;53168;51.146;17.120;2023-06-22T09:10:03;100591.40;;;29.80
66372;BMP180;53168;51.146;17.120;2023-06-22T09:12:39;100591.60;;;29.50
66372;BMP180;53168;51.146;17.120;2023-06-22T09:15:13;100591.40;;;29.50
66372;BMP180;53168;51.146;17.120;2023-06-22T09:17:50;100590.40;;;29.60
66372;BMP180;53168;51.146;17.120;2023-06-22T09:20:27;100585.60;;;29.94
66372;BMP180;53168;51.146;17.120;2023-06-22T09:23:06;100588.60;;;30.12
66372;BMP180;53168;51.146;17.120;2023-06-22T09:25:40;100591.20;;;30.40
66372;BMP180;53168;51.146;17.120;2023-06-22T09:28:14;100585.80;;;30.60
66372;BMP180;53168;51.146;17.120;2023-06-22T09:30:49;100588.80;;;30.84
66372;BMP180;53168;51.146;17.120;2023-06-22T09:33:37;100592.40;;;30.80
66372;BMP180;53168;51.146;17.120;2023-06-22T09:36:19;100586.00;;;30.50
66372;BMP180;53168;51.146;17.120;2023-06-22T09:38:58;100588.40;;;30.50
66372;BMP180;53168;51.146;17.120;2023-06-22T09:41:55;100586.00;;;30.56
66372;BMP180;53168;51.146;17.120;2023-06-22T09:44:40;100586.00;;;30.80
66372;BMP180;53168;51.146;17.120;2023-06-22T09:47:20;100585.00;;;31.10
66372;BMP180;53168;51.146;17.120;2023-06-22T09:49:59;100580.00;;;31.30
66372;BMP180;53168;51.146;17.120;2023-06-22T09:52:39;100591.60;;;31.44
66372;BMP180;53168;51.146;17.120;2023-06-22T09:55:20;100578.60;;;31.30
66372;BMP180;53168;51.146;17.120;2023-06-22T09:57:58;100591.00;;;31.30
66372;BMP180;53168;51.146;17.120;2023-06-22T10:00:35;100582.60;;;31.10
66372;BMP180;53168;51.146;17.120;2023-06-22T10:32:07;100569.00;;;30.90
66372;BMP180;53168;51.146;17.120;2023-06-22T10:34:52;100554.40;;;30.62
66372;BMP180;53168;51.146;17.120;2023-06-22T10:37:31;100544.00;;;30.60
66372;BMP180;53168;51.146;17.120;2023-06-22T10:40:10;100544.20;;;30.46
66372;BMP180;53168;51.146;17.120;2023-06-22T10:43:27;100552.60;;;30.40
66372;BMP180;53168;51.146;17.120;2023-06-22T10:46:01;100539.40;;;30.62
66372;BMP180;53168;51.146;17.120;2023-06-22T10:48:43;100536.00;;;31.04
66372;BMP180;53168;51.146;17.120;2023-06-22T10:51:20;100532.20;;;31.40
66372;BMP180;53168;51.146;17.120;2023-06-22T10:54:36;100534.40;;;31.50
66372;BMP180;53168;51.146;17.120;2023-06-22T10:57:16;100531.80;;;31.60
66372;BMP180;53168;51.146;17.120;2023-06-22T10:59:51;100526.80;;;31.80
66372;BMP180;53168;51.146;17.120;2023-06-22T11:02:26;100528.40;;;32.00
66372;BMP180;53168;51.146;17.120;2023-06-22T11:05:02;100518.80;;;32.42
66372;BMP180;53168;51.146;17.120;2023-06-22T11:07:39;100517.00;;;32.82
66372;BMP180;53168;51.146;17.120;2023-06-22T11:10:15;100512.80;;;33.10
66372;BMP180;53168;51.146;17.120;2023-06-22T11:12:50;100513.60;;;33.34
66372;BMP180;53168;51.146;17.120;2023-06-22T11:15:25;100512.20;;;33.60
66372;BMP180;53168;51.146;17.120;2023-06-22T11:18:05;100510.80;;;33.74
66372;BMP180;53168;51.146;17.120;2023-06-22T11:20:43;100521.80;;;33.86
66372;BMP180;53168;51.146;17.120;2023-06-22T11:23:19;100522.20;;;33.24
66372;BMP180;53168;51.146;17.120;2023-06-22T11:25:55;100492.40;;;32.92
66372;BMP180;53168;51.146;17.120;2023-06-22T11:28:37;100473.60;;;34.08
66372;BMP180;53168;51.146;17.120;2023-06-22T11:31:15;100470.60;;;35.50
66372;BMP180;53168;51.146;17.120;2023-06-22T11:34:11;100458.60;;;36.54
66372;BMP180;53168;51.146;17.120;2023-06-22T11:36:45;100505.80;;;36.96
66372;BMP180;53168;51.146;17.120;2023-06-22T11:39:20;100455.80;;;37.18
66372;BMP180;53168;51.146;17.120;2023-06-22T11:46:24;100518.60;;;34.76
66372;BMP180;53168;51.146;17.120;2023-06-22T11:49:15;100443.60;;;36.42
66372;BMP180;53168;51.146;17.120;2023-06-22T11:51:49;100427.20;;;37.32
66372;BMP180;53168;51.146;17.120;2023-06-22T11:54:23;100406.20;;;37.82
66372;BMP180;53168;51.146;17.120;2023-06-22T11:56:57;100499.80;;;37.30
66372;BMP180;53168;51.146;17.120;2023-06-22T11:59:31;100393.80;;;36.18
66372;BMP180;53168;51.146;17.120;2023-06-22T12:02:05;100405.80;;;37.76
66372;BMP180;53168;51.146;17.120;2023-06-22T12:04:49;100412.40;;;38.52
66372;BMP180;53168;51.146;17.120;2023-06-22T12:07:40;100421.20;;;39.12
66372;BMP180;53168;51.146;17.120;2023-06-22T12:10:14;100440.00;;;39.66
66372;BMP180;53168;51.146;17.120;2023-06-22T12:12:50;100449.20;;;40.00
66372;BMP180;53168;51.146;17.120;2023-06-22T12:15:56;100452.60;;;40.20
66372;BMP180;53168;51.146;17.120;2023-06-22T12:18:41;100452.40;;;40.60
66372;BMP180;53168;51.146;17.120;2023-06-22T12:21:18;100449.80;;;40.70
66372;BMP180;53168;51.146;17.120;2023-06-22T12:23:52;100447.80;;;40.62
66372;BMP180;53168;51.146;17.120;2023-06-22T12:26:29;100454.20;;;40.60
66372;BMP180;53168;51.146;17.120;2023-06-22T12:29:07;100456.60;;;40.42
66372;BMP180;53168;51.146;17.120;2023-06-22T12:31:43;100485.20;;;39.08
66372;BMP180;53168;51.146;17.120;2023-06-22T12:34:17;100473.40;;;37.80
66372;BMP180;53168;51.146;17.120;2023-06-22T12:36:51;100481.00;;;36.76
66372;BMP180;53168;51.146;17.120;2023-06-22T12:39:27;100459.80;;;36.20
66372;BMP180;53168;51.146;17.120;2023-06-22T12:42:01;100449.20;;;36.58
66372;BMP180;53168;51.146;17.120;2023-06-22T12:44:35;100473.40;;;36.64
66372;BMP180;53168;51.146;17.120;2023-06-22T12:47:09;100458.80;;;36.40
66372;BMP180;53168;51.146;17.120;2023-06-22T12:49:43;100453.40;;;37.26
66372;BMP180;53168;51.146;17.120;2023-06-22T12:52:17;100450.00;;;38.00
66372;BMP180;53168;51.146;17.120;2023-06-22T12:54:51;100445.60;;;38.60
66372;BMP180;53168;51.146;17.120;2023-06-22T12:57:27;100444.80;;;39.08
66372;BMP180;53168;51.146;17.120;2023-06-22T13:00:01;100440.60;;;39.30
66372;BMP180;53168;51.146;17.120;2023-06-22T13:02:37;100435.80;;;39.60
66372;BMP180;53168;51.146;17.120;2023-06-22T13:05:15;100433.00;;;40.06
66372;BMP180;53168;51.146;17.120;2023-06-22T13:07:49;100439.00;;;40.40
66372;BMP180;53168;51.146;17.120;2023-06-22T13:10:23;100442.20;;;40.60
66372;BMP180;53168;51.146;17.120;2023-06-22T13:12:56;100447.20;;;40.86
66372;BMP180;53168;51.146;17.120;2023-06-22T13:15:33;100441.20;;;40.22
66372;BMP180;53168;51.146;17.120;2023-06-22T13:18:07;100439.60;;;40.44
66372;BMP180;53168;51.146;17.120;2023-06-22T13:20:41;100430.80;;;40.76
66372;BMP180;53168;51.146;17.120;2023-06-22T13:23:16;100435.80;;;41.10
66372;BMP180;53168;51.146;17.120;2023-06-22T13:25:50;100436.20;;;41.30
66372;BMP180;53168;51.146;17.120;2023-06-22T13:28:24;100431.40;;;41.40
66372;BMP180;53168;51.146;17.120;2023-06-22T13:31:01;100426.00;;;41.60
66372;BMP180;53168;51.146;17.120;2023-06-22T13:33:36;100428.40;;;41.88
66372;BMP180;53168;51.146;17.120;2023-06-22T13:36:14;100427.60;;;42.00
66372;BMP180;53168;51.146;17.120;2023-06-22T13:38:48;100425.40;;;42.20
66372;BMP180;53168;51.146;17.120;2023-06-22T13:41:23;100425.20;;;42.24
66372;BMP180;53168;51.146;17.120;2023-06-22T13:43:58;100422.80;;;42.30
66372;BMP180;53168;51.146;17.120;2023-06-22T13:46:38;100415.80;;;42.40
66372;BMP180;53168;51.146;17.120;2023-06-22T13:49:27;100413.00;;;42.20
66372;BMP180;53168;51.146;17.120;2023-06-22T13:52:06;100409.20;;;42.10
66372;BMP180;53168;51.146;17.120;2023-06-22T13:55:01;100409.60;;;42.40
66372;BMP180;53168;51.146;17.120;2023-06-22T13:57:54;100392.80;;;42.82
66372;BMP180;53168;51.146;17.120;2023-06-22T14:01:03;100416.80;;;43.10
66372;BMP180;53168;51.146;17.120;2023-06-22T14:03:47;100408.60;;;42.40
66372;BMP180;53168;51.146;17.120;2023-06-22T14:06:21;100407.60;;;42.12
66372;BMP180;53168;51.146;17.120;2023-06-22T14:08:56;100420.00;;;41.70
66372;BMP180;53168;51.146;17.120;2023-06-22T14:11:36;100418.00;;;40.96
66372;BMP180;53168;51.146;17.120;2023-06-22T14:14:42;100421.80;;;40.12
66372;BMP180;53168;51.146;17.120;2023-06-22T14:17:29;100419.40;;;39.40
66372;BMP180;53168;51.146;17.120;2023-06-22T14:20:17;100414.40;;;38.98
66372;BMP180;53168;51.146;17.120;2023-06-22T14:23:25;100400.20;;;38.72
66372;BMP180;53168;51.146;17.120;2023-06-22T14:29:39;100392.20;;;39.14
66372;BMP180;53168;51.146;17.120;2023-06-22T14:39:13;100367.60;;;41.70
66372;BMP180;53168;51.146;17.120;2023-06-22T14:44:59;100363.00;;;42.14
66372;BMP180;53168;51.146;17.120;2023-06-22T14:47:36;100374.80;;;41.64
66372;BMP180;53168;51.146;17.120;2023-06-22T14:50:36;100384.60;;;41.38
66372;BMP180;53168;51.146;17.120;2023-06-22T14:57:31;100379.40;;;40.60
66372;BMP180;53168;51.146;17.120;2023-06-22T15:01:03;100362.60;;;40.20
66372;BMP180;53168;51.146;17.120;2023-06-22T15:04:44;100361.80;;;41.02
66372;BMP180;53168;51.146;17.120;2023-06-22T15:07:35;100356.20;;;41.10
66372;BMP180;53168;51.146;17.120;2023-06-22T15:10:11;100351.60;;;41.44
66372;BMP180;53168;51.146;17.120;2023-06-22T15:12:45;100353.20;;;41.80
66372;BMP180;53168;51.146;17.120;2023-06-22T15:15:22;100344.80;;;41.96
66372;BMP180;53168;51.146;17.120;2023-06-22T15:20:50;100336.20;;;41.70
66372;BMP180;53168;51.146;17.120;2023-06-22T15:23:39;100330.80;;;41.40
66372;BMP180;53168;51.146;17.120;2023-06-22T15:27:03;100329.40;;;41.40
66372;BMP180;53168;51.146;17.120;2023-06-22T15:30:23;100332.80;;;41.60
66372;BMP180;53168;51.146;17.120;2023-06-22T15:33:58;100331.20;;;41.60
66372;BMP180;53168;51.146;17.120;2023-06-22T15:36:53;100325.00;;;41.50
66372;BMP180;53168;51.146;17.120;2023-06-22T15:40:14;100324.40;;;41.50
66372;BMP180;53168;51.146;17.120;2023-06-22T15:43:06;100318.00;;;41.60
66372;BMP180;53168;51.146;17.120;2023-06-22T15:46:10;100314.60;;;41.40
66372;BMP180;53168;51.146;17.120;2023-06-22T15:49:04;100304.20;;;41.02
66372;BMP180;53168;51.146;17.120;2023-06-22T15:51:42;100302.40;;;41.10
66372;BMP180;53168;51.146;17.120;2023-06-22T15:58:17;100299.80;;;41.20
66372;BMP180;53168;51.146;17.120;2023-06-22T16:01:01;100295.40;;;41.20
66372;BMP180;53168;51.146;17.120;2023-06-22T16:04:08;100295.20;;;41.08
66372;BMP180;53168;51.146;17.120;2023-06-22T16:06:48;100292.40;;;40.80
66372;BMP180;53168;51.146;17.120;2023-06-22T16:09:32;100290.20;;;40.80
66372;BMP180;53168;51.146;17.120;2023-06-22T16:16:06;100274.60;;;40.90
66372;BMP180;53168;51.146;17.120;2023-06-22T16:23:28;100263.80;;;40.70
66372;BMP180;53168;51.146;17.120;2023-06-22T16:26:45;100261.60;;;40.36
66372;BMP180;53168;51.146;17.120;2023-06-22T16:29:40;100267.20;;;39.98
66372;BMP180;53168;51.146;17.120;2023-06-22T16:32:15;100264.80;;;39.60
66372;BMP180;53168;51.146;17.120;2023-06-22T16:39:19;100259.60;;;38.78
66372;BMP180;53168;51.146;17.120;2023-06-22T16:41:55;100250.40;;;38.50
66372;BMP180;53168;51.146;17.120;2023-06-22T16:44:46;100243.80;;;38.50
66372;BMP180;53168;51.146;17.120;2023-06-22T16:52:12;100234.20;;;38.28
66372;BMP180;53168;51.146;17.120;2023-06-22T16:54:49;100243.80;;;38.08